createdAt,value
2022-08-17T00:02:25.488Z,16.13
2022-08-17T00:04:53.297Z,17.20
2022-08-17T00:07:19.873Z,18.45
2022-08-17T00:09:46.780Z,17.38
2022-08-17T00:12:43.209Z,18.58
2022-08-17T00:14:59.862Z,16.98
2022-08-17T00:17:26.416Z,17.53
2022-08-17T00:19:52.989Z,17.45
2022-08-17T00:22:32.676Z,18.35
2022-08-17T00:25:07.086Z,18.27
2022-08-17T00:27:33.800Z,18.02
2022-08-17T00:30:00.380Z,16.93
2022-08-17T00:33:15.711Z,16.88
2022-08-17T00:35:19.356Z,16.88
2022-08-17T00:37:45.902Z,16.40
2022-08-17T00:40:14.694Z,17.17
2022-08-17T00:42:42.481Z,17.67
2022-08-17T00:45:11.444Z,17.55
2022-08-17T00:47:38.153Z,18.45
2022-08-17T00:50:08.134Z,17.95
2022-08-17T00:52:39.381Z,16.95
2022-08-17T00:55:07.226Z,16.53
2022-08-17T00:57:38.873Z,15.48
2022-08-17T01:00:16.416Z,15.95
2022-08-17T01:02:46.033Z,15.80
2022-08-17T01:05:16.643Z,16.83
2022-08-17T01:07:47.572Z,15.87
2022-08-17T01:10:59.823Z,15.65
2022-08-17T01:13:02.877Z,15.70
2022-08-17T01:15:36.577Z,15.52
2022-08-17T01:18:05.716Z,15.98
2022-08-17T01:20:48.234Z,15.40
2022-08-17T01:23:18.551Z,17.10
2022-08-17T01:25:51.398Z,15.70
2022-08-17T01:28:33.243Z,15.13
2022-08-17T01:31:07.171Z,15.18
2022-08-17T01:33:34.152Z,13.37
2022-08-17T01:36:00.713Z,13.32
2022-08-17T01:38:31.581Z,14.48
2022-08-17T01:41:09.433Z,14.98
2022-08-17T01:43:47.123Z,14.57
2022-08-17T01:46:21.820Z,13.67
2022-08-17T01:48:48.437Z,13.88
2022-08-17T01:51:16.073Z,14.27
2022-08-17T01:53:47.265Z,12.65
2022-08-17T01:56:18.149Z,13.65
2022-08-17T01:58:45.710Z,13.20
2022-08-17T02:01:14.803Z,13.18
2022-08-17T02:03:42.082Z,12.60
2022-08-17T02:06:27.792Z,13.50
2022-08-17T02:09:01.922Z,15.00
2022-08-17T02:11:31.522Z,13.70
2022-08-17T02:14:02.911Z,13.40
2022-08-17T02:16:36.702Z,13.13
2022-08-17T02:19:10.369Z,13.23
2022-08-17T02:21:38.648Z,12.77
2022-08-17T02:24:08.346Z,12.47
2022-08-17T02:26:36.162Z,12.52
2022-08-17T02:29:04.127Z,11.98
2022-08-17T02:31:31.118Z,12.70
2022-08-17T02:34:04.702Z,12.15
2022-08-17T02:36:34.093Z,11.87
2022-08-17T02:39:09.664Z,11.57
2022-08-17T02:41:36.720Z,11.35
2022-08-17T02:44:03.869Z,12.07
2022-08-17T02:46:31.214Z,11.50
2022-08-17T02:48:58.241Z,12.17
2022-08-17T02:51:25.804Z,12.02
2022-08-17T02:53:52.530Z,12.15
2022-08-17T02:56:38.902Z,12.35
2022-08-17T02:59:05.456Z,13.45
2022-08-17T03:01:31.918Z,13.10
2022-08-17T03:03:58.899Z,12.63
2022-08-17T03:06:25.538Z,13.23
2022-08-17T03:08:53.128Z,12.98
2022-08-17T03:11:19.806Z,13.57
2022-08-17T03:13:46.374Z,13.23
2022-08-17T03:16:12.999Z,13.35
2022-08-17T03:18:39.436Z,14.93
2022-08-17T03:21:06.920Z,13.40
2022-08-17T03:23:33.841Z,13.90
2022-08-17T03:26:00.981Z,13.83
2022-08-17T03:28:28.389Z,12.32
2022-08-17T03:30:54.838Z,11.27
2022-08-17T03:33:22.096Z,11.15
2022-08-17T03:35:48.738Z,10.82
2022-08-17T03:38:17.393Z,10.50
2022-08-17T03:40:57.675Z,9.50
2022-08-17T03:43:29.557Z,9.95
2022-08-17T03:46:28.100Z,9.30
2022-08-17T03:49:19.592Z,9.20
2022-08-17T03:52:04.925Z,9.17
2022-08-17T03:54:50.373Z,9.93
2022-08-17T03:57:17.315Z,8.95
2022-08-17T03:59:45.160Z,9.40
2022-08-17T04:02:17.449Z,9.15
2022-08-17T04:04:44.053Z,9.00
2022-08-17T04:07:10.728Z,8.70
2022-08-17T04:09:37.217Z,8.52
2022-08-17T04:12:05.315Z,7.88
2022-08-17T04:14:39.206Z,8.40
2022-08-17T04:17:20.520Z,8.60
2022-08-17T04:19:47.136Z,8.90
2022-08-17T04:22:30.690Z,8.38
2022-08-17T04:25:08.904Z,7.60
2022-08-17T04:27:35.806Z,7.68
2022-08-17T04:30:02.720Z,8.73
2022-08-17T04:33:03.393Z,8.13
2022-08-17T04:35:21.248Z,8.68
2022-08-17T04:37:48.033Z,9.45
2022-08-17T04:40:33.034Z,9.68
2022-08-17T04:43:08.935Z,9.80
2022-08-17T04:45:54.891Z,11.55
2022-08-17T04:48:23.565Z,12.10
2022-08-17T04:51:10.439Z,12.70
2022-08-17T04:53:39.296Z,12.40
2022-08-17T04:56:05.999Z,11.87
2022-08-17T04:58:32.682Z,12.40
2022-08-17T05:00:59.628Z,13.27
2022-08-17T05:03:26.427Z,12.18
2022-08-17T05:05:53.825Z,13.20
2022-08-17T05:08:21.815Z,13.27
2022-08-17T05:10:49.326Z,11.90
2022-08-17T05:13:22.770Z,12.43
2022-08-17T05:15:52.702Z,11.35
2022-08-17T05:18:19.329Z,11.25
2022-08-17T05:20:45.796Z,10.00
2022-08-17T05:23:15.081Z,9.73
2022-08-17T05:25:47.603Z,10.93
2022-08-17T05:28:15.906Z,8.98
2022-08-17T05:30:43.484Z,9.20
2022-08-17T05:33:34.416Z,7.97
2022-08-17T05:36:02.442Z,7.70
2022-08-17T05:38:30.334Z,8.10
2022-08-17T05:40:58.508Z,7.20
2022-08-17T05:43:28.229Z,6.80
2022-08-17T05:46:05.205Z,7.20
2022-08-17T05:48:44.571Z,6.30
2022-08-17T05:51:16.940Z,6.35
2022-08-17T05:53:56.223Z,5.78
2022-08-17T05:56:47.492Z,5.13
2022-08-17T05:59:51.744Z,4.50
2022-08-17T06:03:00.647Z,4.38
2022-08-17T06:05:54.146Z,3.88
2022-08-17T06:08:42.135Z,4.30
2022-08-17T06:11:22.795Z,3.78
2022-08-17T06:14:06.038Z,3.30
2022-08-17T06:16:40.062Z,3.70
2022-08-17T06:19:18.777Z,4.20
2022-08-17T06:21:50.078Z,3.58
2022-08-17T06:24:35.592Z,4.22
2022-08-17T06:27:12.004Z,4.07
2022-08-17T06:29:57.953Z,4.45
2022-08-17T06:32:25.103Z,4.13
2022-08-17T06:34:52.769Z,4.55
2022-08-17T06:37:34.710Z,4.65
2022-08-17T06:40:10.904Z,4.37
2022-08-17T06:43:07.799Z,4.53
2022-08-17T06:45:38.949Z,4.78
2022-08-17T06:48:25.782Z,5.07
2022-08-17T06:51:00.125Z,5.30
2022-08-17T06:53:38.862Z,5.03
2022-08-17T06:56:09.326Z,5.15
2022-08-17T06:58:37.352Z,5.88
2022-08-17T07:01:09.916Z,6.00
2022-08-17T07:03:59.297Z,5.75
2022-08-17T07:06:48.488Z,6.00
2022-08-17T07:09:21.639Z,6.53
2022-08-17T07:12:05.247Z,6.70
2022-08-17T07:14:39.391Z,6.55
2022-08-17T07:17:18.354Z,6.10
2022-08-17T07:19:47.560Z,6.17
2022-08-17T07:22:59.698Z,7.20
2022-08-17T07:25:28.672Z,7.38
2022-08-17T07:28:00.397Z,7.10
2022-08-17T07:30:31.641Z,7.95
2022-08-17T07:33:22.764Z,7.63
2022-08-17T07:35:50.250Z,7.07
2022-08-17T07:38:24.691Z,7.10
2022-08-17T07:41:01.242Z,8.00
2022-08-17T07:43:29.569Z,7.82
2022-08-17T07:46:14.804Z,8.20
2022-08-17T07:48:46.478Z,7.75
2022-08-17T07:51:48.176Z,7.55
2022-08-17T07:54:19.640Z,8.38
2022-08-17T07:56:50.593Z,7.43
2022-08-17T07:59:23.916Z,8.50
2022-08-17T08:01:57.596Z,8.20
2022-08-17T08:05:00.247Z,8.05
2022-08-17T08:07:20.770Z,7.05
2022-08-17T08:09:59.011Z,7.78
2022-08-17T08:12:34.002Z,7.63
2022-08-17T08:15:15.292Z,8.25
2022-08-17T08:17:47.701Z,9.32
2022-08-17T08:20:40.823Z,8.35
2022-08-17T08:23:00.503Z,10.10
2022-08-17T08:25:57.300Z,8.70
2022-08-17T08:28:36.395Z,8.52
2022-08-17T08:31:27.718Z,7.75
2022-08-17T08:34:47.374Z,6.90
2022-08-17T08:37:20.634Z,5.75
2022-08-17T08:39:57.640Z,5.57
2022-08-17T08:42:52.765Z,5.97
2022-08-17T08:45:30.497Z,5.57
2022-08-17T08:48:53.640Z,5.10
2022-08-17T08:51:55.296Z,4.90
2022-08-17T08:54:34.997Z,4.93
2022-08-17T08:57:29.407Z,5.97
2022-08-17T09:00:21.724Z,5.50
2022-08-17T09:03:12.900Z,4.80
2022-08-17T09:05:57.398Z,5.10
2022-08-17T09:08:32.330Z,4.60
2022-08-17T09:11:22.509Z,5.00
2022-08-17T09:14:21.454Z,5.10
2022-08-17T09:17:08.030Z,5.35
2022-08-17T09:19:50.217Z,5.13
2022-08-17T09:22:31.496Z,4.67
2022-08-17T09:25:07.138Z,4.88
2022-08-17T09:27:48.171Z,5.03
2022-08-17T09:30:15.178Z,5.10
2022-08-17T09:32:45.668Z,6.20
2022-08-17T09:35:16.160Z,5.60
2022-08-17T09:38:10.296Z,6.60
2022-08-17T09:41:07.223Z,6.35
2022-08-17T09:43:40.980Z,7.07
2022-08-17T09:46:31.808Z,7.20
2022-08-17T09:49:33.293Z,7.37
2022-08-17T09:52:13.506Z,7.85
2022-08-17T09:54:41.320Z,7.85
2022-08-17T09:57:30.184Z,7.93
2022-08-17T10:00:18.930Z,7.95
2022-08-17T10:02:54.473Z,8.07
2022-08-17T10:05:27.318Z,8.02
2022-08-17T10:08:29.430Z,7.38
2022-08-17T10:11:07.157Z,6.30
2022-08-17T10:13:59.755Z,7.20
2022-08-17T10:16:42.325Z,6.87
2022-08-17T10:19:35.724Z,7.22
2022-08-17T10:22:35.064Z,6.70
2022-08-17T10:25:26.181Z,6.95
2022-08-17T10:28:06.629Z,6.90
2022-08-17T10:30:45.018Z,6.87
2022-08-17T10:33:26.387Z,6.40
2022-08-17T10:36:10.193Z,6.13
2022-08-17T10:38:46.418Z,6.82
2022-08-17T10:41:41.182Z,7.63
2022-08-17T10:44:38.331Z,6.37
2022-08-17T10:47:15.880Z,7.35
2022-08-17T10:49:49.538Z,7.40
2022-08-17T10:52:28.098Z,7.57
2022-08-17T10:54:58.528Z,7.05
2022-08-17T11:00:10.509Z,7.75
2022-08-17T11:02:50.069Z,7.72
2022-08-17T11:05:30.236Z,8.05
2022-08-17T11:08:38.609Z,8.38
2022-08-17T11:11:35.812Z,9.43
2022-08-17T11:14:13.812Z,9.05
2022-08-17T11:16:40.372Z,9.35
2022-08-17T11:19:15.047Z,9.10
2022-08-17T11:22:13.922Z,9.15
2022-08-17T11:24:47.726Z,8.37
2022-08-17T11:27:26.633Z,9.02
2022-08-17T11:30:04.027Z,8.63
2022-08-17T11:32:47.367Z,8.30
2022-08-17T11:35:20.954Z,8.82
2022-08-17T11:38:16.465Z,8.50
2022-08-17T11:41:18.807Z,9.43
2022-08-17T11:44:02.023Z,9.02
2022-08-17T11:47:12.706Z,8.95
2022-08-17T11:49:57.599Z,9.63
2022-08-17T11:52:46.939Z,10.00
2022-08-17T11:55:39.585Z,11.07
2022-08-17T11:58:27.578Z,10.18
2022-08-17T12:00:59.688Z,10.77
2022-08-17T12:03:32.287Z,11.18
2022-08-17T12:06:19.996Z,11.40
2022-08-17T12:09:22.443Z,11.85
2022-08-17T12:12:12.595Z,12.23
2022-08-17T12:17:40.914Z,13.23
2022-08-17T12:20:23.076Z,13.50
2022-08-17T12:23:07.610Z,13.57
2022-08-17T12:25:47.221Z,13.65
2022-08-17T12:28:23.062Z,14.00
2022-08-17T12:30:52.124Z,13.63
2022-08-17T12:33:25.273Z,13.83
2022-08-17T12:36:02.921Z,14.40
2022-08-17T12:38:34.453Z,15.02
2022-08-17T12:41:24.816Z,16.25
2022-08-17T12:44:04.704Z,15.45
2022-08-17T12:46:46.890Z,14.20
2022-08-17T12:49:16.090Z,14.85
2022-08-17T12:51:45.073Z,15.30
2022-08-17T12:54:26.091Z,16.55
2022-08-17T12:56:52.942Z,15.73
2022-08-17T12:59:30.100Z,14.93
2022-08-17T13:01:57.382Z,15.00
2022-08-17T13:04:24.154Z,15.30
2022-08-17T13:06:59.607Z,14.30
2022-08-17T13:09:35.680Z,15.65
2022-08-17T13:12:07.511Z,14.67
2022-08-17T13:14:35.118Z,15.05
2022-08-17T13:17:06.331Z,15.55
2022-08-17T13:19:41.378Z,15.65
2022-08-17T13:22:12.408Z,15.13
2022-08-17T13:24:53.077Z,15.93
2022-08-17T13:27:22.334Z,15.98
2022-08-17T13:29:55.753Z,15.98
2022-08-17T13:32:37.477Z,16.20
2022-08-17T13:35:28.441Z,17.17
2022-08-17T13:38:39.526Z,17.17
2022-08-17T13:41:07.549Z,17.50
2022-08-17T13:43:46.047Z,18.38
2022-08-17T13:46:20.108Z,17.77
2022-08-17T13:48:56.990Z,17.55
2022-08-17T13:51:42.635Z,19.37
2022-08-17T13:54:21.251Z,18.17
2022-08-17T13:57:06.721Z,19.00
2022-08-17T13:59:53.204Z,19.63
2022-08-17T14:02:21.920Z,19.00
2022-08-17T14:04:48.798Z,21.00
2022-08-17T14:07:15.982Z,20.08
2022-08-17T14:09:53.241Z,18.83
2022-08-17T14:12:25.175Z,18.20
2022-08-17T14:14:53.274Z,17.25
2022-08-17T14:17:20.231Z,17.63
2022-08-17T14:19:46.703Z,19.23
2022-08-17T14:22:23.617Z,17.92
2022-08-17T14:24:51.447Z,19.52
2022-08-17T14:27:19.275Z,17.90
2022-08-17T14:29:46.461Z,18.70
2022-08-17T14:32:23.131Z,17.83
2022-08-17T14:34:49.900Z,19.02
2022-08-17T14:37:17.690Z,17.00
2022-08-17T14:39:44.426Z,17.23
2022-08-17T14:42:11.410Z,19.73
2022-08-17T14:44:39.236Z,17.73
2022-08-17T14:47:07.254Z,18.02
2022-08-17T14:49:33.812Z,18.85
2022-08-17T14:52:00.781Z,16.95
2022-08-17T14:54:33.610Z,17.77
2022-08-17T14:57:23.075Z,17.67
2022-08-17T14:59:49.209Z,19.27
2022-08-17T15:02:29.320Z,17.95
2022-08-17T15:05:03.463Z,17.85
2022-08-17T15:07:31.264Z,18.63
2022-08-17T15:10:00.938Z,17.20
2022-08-17T15:12:32.365Z,18.90
2022-08-17T15:15:00.773Z,15.60
2022-08-17T15:17:27.378Z,17.05
2022-08-17T15:20:15.243Z,17.33
2022-08-17T15:22:43.390Z,16.33
2022-08-17T15:25:11.449Z,16.00
2022-08-17T15:27:38.081Z,16.08
2022-08-17T15:30:05.964Z,15.85
2022-08-17T15:32:36.364Z,16.47
2022-08-17T15:35:05.198Z,15.63
2022-08-17T15:37:35.396Z,15.13
2022-08-17T15:40:02.106Z,15.48
2022-08-17T15:42:29.309Z,15.25
2022-08-17T15:44:56.261Z,15.10
2022-08-17T15:47:24.996Z,14.55
2022-08-17T15:49:55.473Z,15.20
2022-08-17T15:52:26.521Z,14.43
2022-08-17T15:54:56.717Z,13.55
2022-08-17T15:57:26.813Z,14.43
2022-08-17T15:59:58.926Z,14.38
2022-08-17T16:03:44.762Z,13.93
2022-08-17T16:05:21.962Z,14.38
2022-08-17T16:07:51.440Z,12.93
2022-08-17T16:10:19.237Z,13.67
2022-08-17T16:12:47.986Z,12.73
2022-08-17T16:15:15.414Z,12.23
2022-08-17T16:17:42.346Z,12.05
2022-08-17T16:20:20.048Z,11.65
2022-08-17T16:22:48.764Z,11.83
2022-08-17T16:25:21.418Z,11.27
2022-08-17T16:27:53.386Z,12.00
2022-08-17T16:30:22.223Z,11.38
2022-08-17T16:32:51.938Z,11.35
2022-08-17T16:35:22.133Z,12.57
2022-08-17T16:37:49.472Z,11.93
2022-08-17T16:40:17.061Z,13.15
2022-08-17T16:42:48.354Z,13.30
2022-08-17T16:45:20.791Z,12.43
2022-08-17T16:47:49.855Z,13.30
2022-08-17T16:50:19.102Z,13.38
2022-08-17T16:52:48.419Z,13.65
2022-08-17T16:55:18.233Z,13.45
2022-08-17T16:57:47.540Z,13.35
2022-08-17T17:00:17.261Z,13.40
2022-08-17T17:02:49.611Z,13.65
2022-08-17T17:05:25.963Z,12.73
2022-08-17T17:08:00.764Z,14.50
2022-08-17T17:10:48.332Z,13.02
2022-08-17T17:13:24.395Z,14.27
2022-08-17T17:16:11.465Z,15.75
2022-08-17T17:19:10.451Z,15.77
2022-08-17T17:22:15.577Z,14.02
2022-08-17T17:25:11.895Z,14.68
2022-08-17T17:28:00.792Z,14.13
2022-08-17T17:30:59.197Z,14.15
2022-08-17T17:33:40.417Z,16.20
2022-08-17T17:36:24.343Z,15.50
2022-08-17T17:38:54.648Z,17.27
2022-08-17T17:41:32.403Z,17.00
2022-08-17T17:44:10.939Z,17.65
2022-08-17T17:46:42.844Z,16.00
2022-08-17T17:49:14.310Z,16.95
2022-08-17T17:52:12.360Z,15.77
2022-08-17T17:55:00.539Z,16.17
2022-08-17T17:57:47.003Z,17.75
2022-08-17T18:00:37.815Z,15.98
2022-08-17T18:03:10.052Z,17.98
2022-08-17T18:05:53.087Z,16.88
2022-08-17T18:08:38.560Z,17.33
2022-08-17T18:11:24.252Z,18.63
2022-08-17T18:14:22.511Z,16.90
2022-08-17T18:16:56.188Z,16.70
2022-08-17T18:19:25.551Z,16.02
2022-08-17T18:22:04.037Z,15.30
2022-08-17T18:24:38.037Z,15.90
2022-08-17T18:27:19.238Z,16.23
2022-08-17T18:29:51.240Z,14.77
2022-08-17T18:32:26.317Z,15.77
2022-08-17T18:35:10.008Z,18.13
2022-08-17T18:37:39.560Z,18.02
2022-08-17T18:40:20.957Z,15.13
2022-08-17T18:42:59.451Z,15.25
2022-08-17T18:45:46.320Z,16.25
2022-08-17T18:48:24.505Z,18.43
2022-08-17T18:50:53.608Z,19.85
2022-08-17T18:53:36.093Z,20.77
2022-08-17T18:56:21.797Z,21.45
2022-08-17T18:58:54.208Z,21.15
2022-08-17T19:01:21.443Z,21.70
2022-08-17T19:04:25.814Z,22.40
2022-08-17T19:07:08.077Z,22.30
2022-08-17T19:09:39.532Z,21.08
2022-08-17T19:12:08.953Z,22.25
2022-08-17T19:14:35.899Z,21.50
2022-08-17T19:17:16.349Z,22.23
2022-08-17T19:20:10.243Z,21.73
2022-08-17T19:22:58.898Z,22.35
2022-08-17T19:25:30.658Z,21.70
2022-08-17T19:28:21.629Z,21.57
2022-08-17T19:30:51.075Z,20.67
2022-08-17T19:33:17.640Z,20.33
2022-08-17T19:36:05.761Z,21.23
2022-08-17T19:38:51.028Z,20.98
2022-08-17T19:41:29.974Z,20.63
2022-08-17T19:44:08.120Z,21.92
2022-08-17T19:46:56.187Z,21.70
2022-08-17T19:49:41.384Z,21.45
2022-08-17T19:52:39.159Z,21.42
2022-08-17T19:55:20.616Z,18.40
2022-08-17T19:58:07.782Z,20.02
2022-08-17T20:00:41.886Z,19.92
2022-08-17T20:03:16.550Z,20.70
2022-08-17T20:06:11.917Z,20.90
2022-08-17T20:08:48.889Z,18.07
2022-08-17T20:11:21.157Z,19.33
2022-08-17T20:14:13.218Z,19.15
2022-08-17T20:16:39.709Z,18.02
2022-08-17T20:19:17.933Z,18.00
2022-08-17T20:22:08.495Z,18.17
2022-08-17T20:24:47.892Z,17.23
2022-08-17T20:27:31.688Z,17.00
2022-08-17T20:30:03.715Z,17.23
2022-08-17T20:32:55.494Z,17.15
2022-08-17T20:35:23.902Z,17.50
2022-08-17T20:37:54.010Z,17.08
2022-08-17T20:40:25.827Z,16.92
2022-08-17T20:42:52.760Z,17.00
2022-08-17T20:45:23.397Z,17.30
2022-08-17T20:48:21.596Z,16.97
2022-08-17T20:50:57.388Z,17.17
2022-08-17T20:53:54.834Z,15.90
2022-08-17T20:56:43.447Z,16.48
2022-08-17T20:59:30.368Z,16.10
2022-08-17T21:02:08.953Z,15.30
2022-08-17T21:05:00.140Z,16.02
2022-08-17T21:07:42.621Z,15.68
2022-08-17T21:10:18.471Z,17.08
2022-08-17T21:12:51.604Z,16.77
2022-08-17T21:15:18.034Z,15.77
2022-08-17T21:17:59.460Z,16.85
2022-08-17T21:20:32.536Z,14.90
2022-08-17T21:23:02.144Z,15.85
2022-08-17T21:26:07.674Z,15.38
2022-08-17T21:29:00.230Z,15.00
2022-08-17T21:31:37.033Z,15.27
2022-08-17T21:34:15.821Z,15.63
2022-08-17T21:36:48.242Z,15.10
2022-08-17T21:39:42.544Z,15.05
2022-08-17T21:42:12.289Z,13.53
2022-08-17T21:44:47.814Z,12.98
2022-08-17T21:47:20.352Z,12.63
2022-08-17T21:49:47.436Z,12.07
2022-08-17T21:52:17.553Z,11.75
2022-08-17T21:54:53.587Z,11.50
2022-08-17T21:57:24.481Z,11.45
2022-08-17T21:59:58.105Z,10.85
2022-08-17T22:02:30.319Z,10.55
2022-08-17T22:05:04.906Z,11.43
2022-08-17T22:07:51.004Z,11.77
2022-08-17T22:10:39.459Z,10.63
2022-08-17T22:13:17.598Z,10.48
2022-08-17T22:16:15.742Z,9.95
2022-08-17T22:18:57.545Z,10.50
2022-08-17T22:21:24.618Z,10.17
2022-08-17T22:24:15.240Z,10.35
2022-08-17T22:27:00.150Z,10.27
2022-08-17T22:29:57.644Z,10.07
2022-08-17T22:32:37.477Z,9.25
2022-08-17T22:35:28.925Z,9.67
2022-08-17T22:38:20.188Z,9.60
2022-08-17T22:40:56.656Z,9.38
2022-08-17T22:43:26.304Z,9.18
2022-08-17T22:45:57.562Z,9.88
2022-08-17T22:48:28.298Z,9.60
2022-08-17T22:51:26.941Z,9.00
2022-08-17T22:54:17.399Z,8.77
2022-08-17T22:57:18.730Z,9.32
2022-08-17T22:59:45.397Z,9.20
2022-08-17T23:02:17.300Z,9.37
2022-08-17T23:04:49.193Z,9.20
2022-08-17T23:07:15.801Z,9.40
2022-08-17T23:09:42.658Z,9.65
2022-08-17T23:12:15.945Z,9.00
2022-08-17T23:14:45.737Z,8.13
2022-08-17T23:17:12.802Z,9.18
2022-08-17T23:19:39.351Z,8.77
2022-08-17T23:22:09.400Z,8.60
2022-08-17T23:24:43.576Z,8.07
2022-08-17T23:27:10.468Z,9.67
2022-08-17T23:29:39.513Z,9.10
2022-08-17T23:32:06.993Z,9.07
2022-08-17T23:34:33.509Z,8.50
2022-08-17T23:37:02.115Z,9.15
2022-08-17T23:39:28.628Z,9.17
2022-08-17T23:41:57.885Z,8.38
2022-08-17T23:44:25.112Z,9.30
2022-08-17T23:46:52.735Z,8.95
2022-08-17T23:49:19.893Z,8.82
2022-08-17T23:51:48.077Z,9.13
2022-08-17T23:54:41.583Z,9.77
2022-08-17T23:57:09.309Z,9.32
2022-08-17T23:59:37.228Z,9.85
